Terminal Aerodrome Forecast
Issued by NWS

Home | Current Version | Previous Version | Text Only | Print | Product List | Glossary On
Versions: 1 2 3 4 5 6 7 8 9 10 11 12 13 14
000
FTUS45 KRIW 221700
TAFLND
TAF
KLND 221720Z 2218/2318 VRB06KT P6SM VCSH SCT060 BKN100
     FM221900 14006KT P6SM SCT070 BKN100
     FM222200 VRB06G16KT P6SM VCTS SCT060CB BKN100
     FM230200 30010KT P6SM VCSH BKN060
     FM230500 30006KT 4SM SHRA BKN045
     FM231000 VRB05KT P6SM SCT150=

USA.gov is the U.S. government's official web portal to all federal, state and local government web resources and services.